createdAt,value
2016-09-14T00:00:40.550Z,21.58
2016-09-14T00:01:40.652Z,21.53
2016-09-14T00:02:40.609Z,21.59
2016-09-14T00:03:40.529Z,21.51
2016-09-14T00:04:40.623Z,21.52
2016-09-14T00:05:40.595Z,21.51
2016-09-14T00:06:40.644Z,21.53
2016-09-14T00:07:40.577Z,21.59
2016-09-14T00:08:40.583Z,21.59
2016-09-14T00:09:40.589Z,21.45
2016-09-14T00:10:40.640Z,21.38
2016-09-14T00:11:40.659Z,21.34
2016-09-14T00:12:40.672Z,21.37
2016-09-14T00:13:40.598Z,21.27
2016-09-14T00:14:40.629Z,21.33
2016-09-14T00:15:40.545Z,21.11
2016-09-14T00:16:40.670Z,21.22
2016-09-14T00:17:40.644Z,21.08
2016-09-14T00:18:40.555Z,21.23
2016-09-14T00:19:40.604Z,21.28
2016-09-14T00:20:40.572Z,21.34
2016-09-14T00:21:40.641Z,21.36
2016-09-14T00:22:40.599Z,21.13
2016-09-14T00:23:40.580Z,21.16
2016-09-14T00:24:40.640Z,21.12
2016-09-14T00:25:40.690Z,21.28
2016-09-14T00:26:40.694Z,21.31
2016-09-14T00:27:40.710Z,21.13
2016-09-14T00:28:40.608Z,21.28
2016-09-14T00:29:40.559Z,21.22
2016-09-14T00:30:40.749Z,21.36
2016-09-14T00:31:40.664Z,21.38
2016-09-14T00:32:40.594Z,21.3
2016-09-14T00:33:40.774Z,21.34
2016-09-14T00:34:40.746Z,21.28
2016-09-14T00:35:40.728Z,21.33
2016-09-14T00:36:40.680Z,21.28
2016-09-14T00:37:40.704Z,21.18
2016-09-14T00:38:40.652Z,21.27
2016-09-14T00:39:40.616Z,21.36
2016-09-14T00:40:40.748Z,21.25
2016-09-14T00:41:40.744Z,21.21
2016-09-14T00:42:40.665Z,21.09
2016-09-14T00:43:40.608Z,21
2016-09-14T00:44:40.685Z,21.04
2016-09-14T00:45:40.726Z,20.98
2016-09-14T00:46:40.702Z,20.91
2016-09-14T00:47:40.736Z,20.88
2016-09-14T00:48:40.698Z,20.85
2016-09-14T00:49:40.727Z,20.79
2016-09-14T00:50:40.660Z,20.78
2016-09-14T00:51:40.773Z,20.68
2016-09-14T00:52:40.723Z,20.71
2016-09-14T00:53:40.778Z,20.63
2016-09-14T00:54:40.744Z,20.6
2016-09-14T00:55:40.754Z,20.42
2016-09-14T00:56:40.798Z,20.48
2016-09-14T00:57:40.685Z,20.41
2016-09-14T00:58:40.721Z,20.38
2016-09-14T00:59:40.761Z,20.23
2016-09-14T01:00:40.765Z,20.23
2016-09-14T01:01:40.809Z,20.29
2016-09-14T01:02:40.802Z,20.18
2016-09-14T01:03:40.752Z,20.16
2016-09-14T01:04:40.823Z,20.11
2016-09-14T01:05:40.824Z,20.07
2016-09-14T01:06:40.740Z,20.08
2016-09-14T01:07:40.797Z,19.98
2016-09-14T01:08:40.759Z,20.01
2016-09-14T01:09:40.676Z,20.02
2016-09-14T01:10:40.842Z,19.97
2016-09-14T01:11:40.713Z,19.98
2016-09-14T01:12:40.829Z,20
2016-09-14T01:13:40.752Z,19.92
2016-09-14T01:14:40.695Z,19.9
2016-09-14T01:15:40.819Z,19.93
2016-09-14T01:16:40.745Z,19.89
2016-09-14T01:17:40.855Z,19.87
2016-09-14T01:18:40.775Z,19.87
2016-09-14T01:19:40.859Z,19.87
2016-09-14T01:20:40.799Z,19.83
2016-09-14T01:21:40.835Z,19.8
2016-09-14T01:22:40.823Z,19.7
2016-09-14T01:23:40.832Z,19.74
2016-09-14T01:24:40.799Z,19.65
2016-09-14T01:25:40.819Z,19.71
2016-09-14T01:26:40.738Z,19.65
2016-09-14T01:27:40.807Z,19.52
2016-09-14T01:28:40.788Z,19.5
2016-09-14T01:29:40.855Z,19.5
2016-09-14T01:30:40.849Z,19.47
2016-09-14T01:31:40.889Z,19.55
2016-09-14T01:32:40.881Z,19.5
2016-09-14T01:33:40.823Z,19.37
2016-09-14T01:34:40.881Z,19.45
2016-09-14T01:35:40.799Z,19.4
2016-09-14T01:36:40.873Z,19.35
2016-09-14T01:37:40.831Z,19.27
2016-09-14T01:38:40.847Z,19.27
2016-09-14T01:39:40.880Z,19.24
2016-09-14T01:40:40.871Z,19.27
2016-09-14T01:41:40.892Z,19.2
2016-09-14T01:42:40.869Z,19.2
2016-09-14T01:43:40.889Z,19.16
2016-09-14T01:44:40.897Z,19.09
2016-09-14T01:45:40.865Z,19.2
2016-09-14T01:46:40.956Z,19.12
2016-09-14T01:47:40.945Z,19.09
2016-09-14T01:48:40.841Z,19.1
2016-09-14T01:49:40.960Z,19.05
2016-09-14T01:50:40.951Z,19.06
2016-09-14T01:51:40.974Z,19.09
2016-09-14T01:52:40.805Z,18.97
2016-09-14T01:53:40.918Z,18.97
2016-09-14T01:54:40.825Z,18.93
2016-09-14T01:55:40.966Z,18.93
2016-09-14T01:56:40.933Z,18.89
2016-09-14T01:57:40.935Z,18.84
2016-09-14T01:58:40.967Z,18.78
2016-09-14T01:59:40.895Z,18.82
2016-09-14T02:00:40.900Z,18.81
2016-09-14T02:01:40.905Z,18.71
2016-09-14T02:02:40.912Z,18.79
2016-09-14T02:03:41.000Z,18.66
2016-09-14T02:04:40.954Z,18.75
2016-09-14T02:05:41.040Z,18.66
2016-09-14T02:06:40.958Z,18.71
2016-09-14T02:07:40.991Z,18.66
2016-09-14T02:08:40.931Z,18.63
2016-09-14T02:09:40.973Z,18.68
2016-09-14T02:10:40.940Z,18.57
2016-09-14T02:11:40.889Z,18.59
2016-09-14T02:12:40.966Z,18.61
2016-09-14T02:13:41.003Z,18.59
2016-09-14T02:14:41.015Z,18.56
2016-09-14T02:15:41.007Z,18.53
2016-09-14T02:16:41.025Z,18.5
2016-09-14T02:17:40.986Z,18.5
2016-09-14T02:18:40.951Z,18.5
2016-09-14T02:19:40.956Z,18.49
2016-09-14T02:20:40.899Z,18.57
2016-09-14T02:21:41.001Z,18.44
2016-09-14T02:22:41.043Z,18.51
2016-09-14T02:23:40.945Z,18.44
2016-09-14T02:24:41.012Z,18.47
2016-09-14T02:25:40.903Z,18.39
2016-09-14T02:26:41.082Z,18.36
2016-09-14T02:27:40.953Z,18.39
2016-09-14T02:28:41.016Z,18.35
2016-09-14T02:29:41.064Z,18.27
2016-09-14T02:30:41.021Z,18.29
2016-09-14T02:31:40.956Z,18.31
2016-09-14T02:32:40.997Z,18.32
2016-09-14T02:33:41.078Z,18.31
2016-09-14T02:34:41.140Z,18.24
2016-09-14T02:35:41.034Z,18.29
2016-09-14T02:36:41.013Z,18.23
2016-09-14T02:37:40.982Z,18.27
2016-09-14T02:38:41.094Z,18.17
2016-09-14T02:39:41.043Z,18.17
2016-09-14T02:40:41.044Z,18.2
2016-09-14T02:41:40.999Z,18.17
2016-09-14T02:42:41.061Z,18.19
2016-09-14T02:43:40.992Z,18.21
2016-09-14T02:44:41.100Z,18.1
2016-09-14T02:45:40.985Z,18.17
2016-09-14T02:46:40.986Z,18.05
2016-09-14T02:47:41.073Z,18.03
2016-09-14T02:48:40.960Z,18.02
2016-09-14T02:49:41.028Z,17.98
2016-09-14T02:50:41.083Z,18.01
2016-09-14T02:51:41.091Z,17.92
2016-09-14T02:52:41.045Z,17.98
2016-09-14T02:53:41.078Z,17.86
2016-09-14T02:54:41.140Z,17.87
2016-09-14T02:55:40.990Z,17.95
2016-09-14T02:56:41.075Z,17.92
2016-09-14T02:57:41.109Z,17.83
2016-09-14T02:58:41.106Z,17.9
2016-09-14T02:59:41.121Z,17.74
2016-09-14T03:00:41.081Z,17.8
2016-09-14T03:01:41.082Z,17.71
2016-09-14T03:02:41.113Z,17.79
2016-09-14T03:03:41.138Z,17.74
2016-09-14T03:04:41.087Z,17.74
2016-09-14T03:05:41.172Z,17.66
2016-09-14T03:06:41.179Z,17.57
2016-09-14T03:07:41.131Z,17.6
2016-09-14T03:08:41.147Z,17.62
2016-09-14T03:09:41.184Z,17.55
2016-09-14T03:10:41.073Z,17.55
2016-09-14T03:11:41.187Z,17.49
2016-09-14T03:12:41.198Z,17.54
2016-09-14T03:13:41.097Z,17.42
2016-09-14T03:14:41.150Z,17.54
2016-09-14T03:15:41.154Z,17.42
2016-09-14T03:16:41.194Z,17.45
2016-09-14T03:17:41.201Z,17.36
2016-09-14T03:18:41.146Z,17.45
2016-09-14T03:19:41.130Z,17.43
2016-09-14T03:20:41.090Z,17.49
2016-09-14T03:21:41.210Z,17.5
2016-09-14T03:22:41.183Z,17.5
2016-09-14T03:23:41.163Z,17.43
2016-09-14T03:24:41.155Z,17.46
2016-09-14T03:25:41.105Z,17.39
2016-09-14T03:26:41.146Z,17.39
2016-09-14T03:27:41.255Z,17.42
2016-09-14T03:28:41.232Z,17.39
2016-09-14T03:29:41.221Z,17.38
2016-09-14T03:30:41.228Z,17.52
2016-09-14T03:31:41.167Z,17.38
2016-09-14T03:32:41.161Z,17.31
2016-09-14T03:33:41.212Z,17.36
2016-09-14T03:34:41.302Z,17.25
2016-09-14T03:35:41.216Z,17.27
2016-09-14T03:36:41.280Z,17.27
2016-09-14T03:37:41.143Z,17.2
2016-09-14T03:38:41.182Z,17.24
2016-09-14T03:39:41.232Z,17.24
2016-09-14T03:40:41.158Z,17.3
2016-09-14T03:41:41.130Z,17.36
2016-09-14T03:42:41.280Z,17.45
2016-09-14T03:43:41.239Z,17.54
2016-09-14T03:44:41.242Z,17.46
2016-09-14T03:45:41.256Z,17.5
2016-09-14T03:46:41.255Z,17.5
2016-09-14T03:47:41.275Z,17.43
2016-09-14T03:48:41.302Z,17.49
2016-09-14T03:49:41.217Z,17.57
2016-09-14T03:50:41.295Z,17.52
2016-09-14T03:51:41.247Z,17.52
2016-09-14T03:52:41.317Z,17.46
2016-09-14T03:53:41.153Z,17.46
2016-09-14T03:54:41.239Z,17.4
2016-09-14T03:55:41.288Z,17.38
2016-09-14T03:56:41.205Z,17.42
2016-09-14T03:57:41.239Z,17.31
2016-09-14T03:58:41.315Z,17.31
2016-09-14T03:59:41.300Z,17.32
2016-09-14T04:00:41.324Z,17.28
2016-09-14T04:01:41.243Z,17.38
2016-09-14T04:02:41.323Z,17.36
2016-09-14T04:03:41.292Z,17.31
2016-09-14T04:04:41.359Z,17.27
2016-09-14T04:05:41.273Z,17.38
2016-09-14T04:06:41.220Z,17.27
2016-09-14T04:07:41.300Z,17.25
2016-09-14T04:08:41.243Z,17.32
2016-09-14T04:09:41.337Z,17.32
2016-09-14T04:10:41.293Z,17.32
2016-09-14T04:11:41.294Z,17.25
2016-09-14T04:13:41.320Z,17.22
2016-09-14T04:14:41.329Z,17.21
2016-09-14T04:15:41.328Z,17.21
2016-09-14T04:16:41.361Z,17.24
2016-09-14T04:17:41.370Z,17.24
2016-09-14T04:18:41.301Z,17.25
2016-09-14T04:19:41.259Z,17.24
2016-09-14T04:20:41.287Z,17.17
2016-09-14T04:21:41.380Z,17.22
2016-09-14T04:22:41.316Z,17.24
2016-09-14T04:23:41.295Z,17.12
2016-09-14T04:24:41.378Z,17.18
2016-09-14T04:25:41.283Z,17.07
2016-09-14T04:26:41.375Z,17.06
2016-09-14T04:27:41.392Z,17.12
2016-09-14T04:28:41.319Z,17.13
2016-09-14T04:29:41.331Z,17.15
2016-09-14T04:30:41.414Z,17.05
2016-09-14T04:31:41.321Z,17.06
2016-09-14T04:32:41.345Z,17.1
2016-09-14T04:33:41.388Z,17.02
2016-09-14T04:34:41.383Z,17.1
2016-09-14T04:35:41.386Z,17.03
2016-09-14T04:36:41.344Z,17.05
2016-09-14T04:37:41.387Z,16.92
2016-09-14T04:38:41.441Z,16.97
2016-09-14T04:39:41.356Z,17
2016-09-14T04:40:41.358Z,16.94
2016-09-14T04:41:41.361Z,16.99
2016-09-14T04:42:41.433Z,16.94
2016-09-14T04:43:41.368Z,16.91
2016-09-14T04:44:41.452Z,16.92
2016-09-14T04:45:41.336Z,16.88
2016-09-14T04:46:41.450Z,16.91
2016-09-14T04:47:41.458Z,16.88
2016-09-14T04:48:41.382Z,16.91
2016-09-14T04:49:41.462Z,16.91
2016-09-14T04:50:41.305Z,16.85
2016-09-14T04:51:41.312Z,16.84
2016-09-14T04:52:41.428Z,16.82
2016-09-14T04:53:41.394Z,16.74
2016-09-14T04:54:41.394Z,16.77
2016-09-14T04:55:41.436Z,16.74
2016-09-14T04:56:41.418Z,16.69
2016-09-14T04:57:41.484Z,16.69
2016-09-14T04:58:41.442Z,16.67
2016-09-14T04:59:41.480Z,16.63
2016-09-14T05:00:41.503Z,16.63
2016-09-14T05:01:41.420Z,16.58
2016-09-14T05:02:41.391Z,16.59
2016-09-14T05:03:41.449Z,16.59
2016-09-14T05:04:41.461Z,16.63
2016-09-14T05:05:41.463Z,16.54
2016-09-14T05:06:41.415Z,16.54
2016-09-14T05:07:41.396Z,16.55
2016-09-14T05:08:41.508Z,16.57
2016-09-14T05:09:41.435Z,16.55
2016-09-14T05:10:41.455Z,16.54
2016-09-14T05:11:41.445Z,16.57
2016-09-14T05:12:41.440Z,16.54
2016-09-14T05:13:41.454Z,16.57
2016-09-14T05:14:41.497Z,16.58
2016-09-14T05:15:41.481Z,16.55
2016-09-14T05:16:41.540Z,16.49
2016-09-14T05:17:41.564Z,16.52
2016-09-14T05:18:41.459Z,16.57
2016-09-14T05:19:41.453Z,16.52
2016-09-14T05:20:41.492Z,16.59
2016-09-14T05:21:41.563Z,16.62
2016-09-14T05:22:41.547Z,16.65
2016-09-14T05:23:41.556Z,16.55
2016-09-14T05:24:41.526Z,16.67
2016-09-14T05:25:41.534Z,16.59
2016-09-14T05:26:41.461Z,16.58
2016-09-14T05:27:41.592Z,16.62
2016-09-14T05:28:41.551Z,16.63
2016-09-14T05:29:41.445Z,16.67
2016-09-14T05:30:41.494Z,16.67
2016-09-14T05:31:41.492Z,16.72
2016-09-14T05:32:41.451Z,16.76
2016-09-14T05:33:41.596Z,16.77
2016-09-14T05:34:41.515Z,16.95
2016-09-14T05:35:41.711Z,17.03
2016-09-14T05:36:41.517Z,17.09
2016-09-14T05:37:41.559Z,17.22
2016-09-14T05:38:41.477Z,17.28
2016-09-14T05:39:41.609Z,17.31
2016-09-14T05:40:41.552Z,17.28
2016-09-14T05:41:41.645Z,17.4
2016-09-14T05:42:41.489Z,17.38
2016-09-14T05:43:41.535Z,17.46
2016-09-14T05:44:41.549Z,17.46
2016-09-14T05:45:41.635Z,17.45
2016-09-14T05:46:41.546Z,17.49
2016-09-14T05:47:41.550Z,17.55
2016-09-14T05:48:41.525Z,17.52
2016-09-14T05:49:41.581Z,17.49
2016-09-14T05:50:41.598Z,17.6
2016-09-14T05:51:41.520Z,17.57
2016-09-14T05:52:41.595Z,17.58
2016-09-14T05:53:41.624Z,17.66
2016-09-14T05:54:41.533Z,17.77
2016-09-14T05:55:41.567Z,17.87
2016-09-14T05:56:41.646Z,17.99
2016-09-14T05:57:41.603Z,18.17
2016-09-14T05:58:41.582Z,18.27
2016-09-14T05:59:41.499Z,18.53
2016-09-14T06:00:41.587Z,18.68
2016-09-14T06:01:41.507Z,18.89
2016-09-14T06:02:41.632Z,19.12
2016-09-14T06:03:41.575Z,19.42
2016-09-14T06:04:41.582Z,19.55
2016-09-14T06:05:41.595Z,19.89
2016-09-14T06:06:41.683Z,20.16
2016-09-14T06:07:41.581Z,20.27
2016-09-14T06:08:41.703Z,20.41
2016-09-14T06:09:41.648Z,20.61
2016-09-14T06:10:41.633Z,20.88
2016-09-14T06:11:41.633Z,20.96
2016-09-14T06:12:41.656Z,21.13
2016-09-14T06:13:41.651Z,21.15
2016-09-14T06:14:41.659Z,21.25
2016-09-14T06:15:41.779Z,21.41
2016-09-14T06:16:43.173Z,21.59
2016-09-14T06:17:41.674Z,21.78
2016-09-14T06:18:41.737Z,21.83
2016-09-14T06:19:41.753Z,21.93
2016-09-14T06:20:41.747Z,22.08
2016-09-14T06:21:41.669Z,22.09
2016-09-14T06:22:41.707Z,22.11
2016-09-14T06:23:41.783Z,22.18
2016-09-14T06:24:41.839Z,22.2
2016-09-14T06:25:41.689Z,22.27
2016-09-14T06:26:42.035Z,22.38
2016-09-14T06:27:41.655Z,22.41
2016-09-14T06:28:41.825Z,22.29
2016-09-14T06:29:41.704Z,22.12
2016-09-14T06:30:43.882Z,22
2016-09-14T06:31:41.784Z,22.08
2016-09-14T06:32:41.757Z,22.26
2016-09-14T06:33:41.682Z,22.49
2016-09-14T06:34:41.976Z,22.64
2016-09-14T06:35:41.953Z,22.71
2016-09-14T06:36:41.715Z,22.84
2016-09-14T06:37:41.710Z,22.94
2016-09-14T06:38:41.672Z,23.01
2016-09-14T06:39:41.721Z,23.15
2016-09-14T06:40:41.932Z,23.35
2016-09-14T06:41:41.849Z,23.35
2016-09-14T06:42:41.851Z,23.56
2016-09-14T06:43:41.937Z,23.63
2016-09-14T06:44:41.836Z,23.74
2016-09-14T06:45:41.872Z,23.84
2016-09-14T06:46:41.766Z,23.93
2016-09-14T06:47:41.783Z,23.75
2016-09-14T06:48:41.852Z,23.87
2016-09-14T06:49:41.744Z,24.07
2016-09-14T06:50:41.907Z,24.29
2016-09-14T06:51:41.780Z,24.37
2016-09-14T06:52:41.968Z,24.3
2016-09-14T06:53:41.822Z,24.44
2016-09-14T06:54:41.760Z,24.55
2016-09-14T06:55:41.817Z,24.71
2016-09-14T06:56:41.848Z,24.89
2016-09-14T06:57:41.804Z,25.09
2016-09-14T06:58:41.833Z,25.2
2016-09-14T06:59:41.754Z,25.15
2016-09-14T07:00:41.873Z,25
2016-09-14T07:01:41.819Z,25.07
2016-09-14T07:02:42.148Z,25.15
2016-09-14T07:03:41.741Z,25.32
2016-09-14T07:04:42.840Z,25.42
2016-09-14T07:05:43.273Z,25.48
2016-09-14T07:06:42.209Z,25.69
2016-09-14T07:07:42.302Z,25.78
2016-09-14T07:08:41.916Z,25.96
2016-09-14T07:09:41.911Z,26.06
2016-09-14T07:10:41.941Z,25.86
2016-09-14T07:11:41.958Z,25.56
2016-09-14T07:12:45.619Z,25.52
2016-09-14T07:13:43.957Z,25.78
2016-09-14T07:14:42.011Z,25.85
2016-09-14T07:15:41.862Z,25.96
2016-09-14T07:16:42.254Z,25.93
2016-09-14T07:17:42.084Z,25.79
2016-09-14T07:18:42.123Z,25.69
2016-09-14T07:19:41.962Z,25.59
2016-09-14T07:20:41.923Z,25.66
2016-09-14T07:21:41.910Z,26.03
2016-09-14T07:22:41.956Z,26.24
2016-09-14T07:23:41.980Z,26.44
2016-09-14T07:24:41.915Z,26.57
2016-09-14T07:25:41.931Z,26.79
2016-09-14T07:26:41.962Z,26.89
2016-09-14T07:27:41.969Z,27.01
2016-09-14T07:28:41.802Z,27.3
2016-09-14T07:29:42.036Z,27.37
2016-09-14T07:30:42.430Z,27.61
2016-09-14T07:31:49.658Z,27.43
2016-09-14T07:32:48.303Z,27.57
2016-09-14T07:33:42.126Z,27.45
2016-09-14T07:34:42.010Z,27.55
2016-09-14T07:35:41.873Z,27.04
2016-09-14T07:36:42.718Z,27.04
2016-09-14T07:37:42.047Z,27.01
2016-09-14T07:38:41.899Z,27.04
2016-09-14T07:39:41.835Z,26.9
2016-09-14T07:40:42.533Z,26.89
2016-09-14T07:41:41.933Z,27.01
2016-09-14T07:42:41.939Z,27
2016-09-14T07:43:41.907Z,26.89
2016-09-14T07:44:41.863Z,26.76
2016-09-14T07:45:42.818Z,26.86
2016-09-14T07:46:42.323Z,26.76
2016-09-14T07:47:42.148Z,27.11
2016-09-14T07:48:42.486Z,27.46
2016-09-14T07:49:42.111Z,27.71
2016-09-14T07:50:41.880Z,27.94
2016-09-14T07:51:43.562Z,28.08
2016-09-14T07:52:42.853Z,28.17
2016-09-14T07:53:43.716Z,28.43
2016-09-14T07:54:44.824Z,28.53
2016-09-14T07:55:42.121Z,28.73
2016-09-14T07:56:42.932Z,28.86
2016-09-14T07:57:43.060Z,28.67
2016-09-14T07:58:41.949Z,28.3
2016-09-14T07:59:47.526Z,28.23
2016-09-14T08:00:44.012Z,27.94
2016-09-14T08:01:45.450Z,27.53
2016-09-14T08:02:48.464Z,27.68
2016-09-14T08:03:47.136Z,28.11
2016-09-14T08:04:42.610Z,28.54
2016-09-14T08:05:42.087Z,28.9
2016-09-14T08:06:42.066Z,29.33
2016-09-14T08:07:42.969Z,29.15
2016-09-14T08:08:42.814Z,29.11
2016-09-14T08:09:45.774Z,29.45
2016-09-14T08:10:44.379Z,29.43
2016-09-14T08:11:42.052Z,29.4
2016-09-14T08:12:42.037Z,29.66
2016-09-14T08:13:42.108Z,30.03
2016-09-14T08:14:42.061Z,29.45
2016-09-14T08:15:42.286Z,29.32
2016-09-14T08:16:42.106Z,29.3
2016-09-14T08:17:42.054Z,29.76
2016-09-14T08:18:42.077Z,29.95
2016-09-14T08:19:42.068Z,30.1
2016-09-14T08:20:42.021Z,30.28
2016-09-14T08:21:42.193Z,30.57
2016-09-14T08:22:42.247Z,30.7
2016-09-14T08:23:42.069Z,30.97
2016-09-14T08:24:42.591Z,31.23
2016-09-14T08:25:42.136Z,30.89
2016-09-14T08:26:42.412Z,31.07
2016-09-14T08:27:42.292Z,31.19
2016-09-14T08:28:42.087Z,31.41
2016-09-14T08:29:42.085Z,31.59
2016-09-14T08:30:42.050Z,31.72
2016-09-14T08:31:42.208Z,31.87
2016-09-14T08:32:42.142Z,32.06
2016-09-14T08:33:42.096Z,32.12
2016-09-14T08:34:42.172Z,32.37
2016-09-14T08:35:42.112Z,32.59
2016-09-14T08:36:42.420Z,32.68
2016-09-14T08:37:42.105Z,32.57
2016-09-14T08:38:42.256Z,32.57
2016-09-14T08:39:42.128Z,32.53
2016-09-14T08:40:42.168Z,32.71
2016-09-14T08:41:42.156Z,32.59
2016-09-14T08:42:42.128Z,32.68
2016-09-14T08:43:42.467Z,32.68
2016-09-14T08:44:42.330Z,32.54
2016-09-14T08:45:42.186Z,32.8
2016-09-14T08:46:42.664Z,32.87
2016-09-14T08:47:42.180Z,33.2
2016-09-14T08:48:42.174Z,33.16
2016-09-14T08:49:42.413Z,33.21
2016-09-14T08:50:42.434Z,33.12
2016-09-14T08:51:42.357Z,32.2
2016-09-14T08:52:42.129Z,31.65
2016-09-14T08:53:42.229Z,31.8
2016-09-14T08:54:42.128Z,31.56
2016-09-14T08:55:42.227Z,31.63
2016-09-14T08:56:42.258Z,31.95
2016-09-14T08:57:42.148Z,32.17
2016-09-14T08:58:42.390Z,32.35
2016-09-14T08:59:42.409Z,32.42
2016-09-14T09:00:42.336Z,32.9
2016-09-14T09:01:42.562Z,32.79
2016-09-14T09:02:42.259Z,32.86
2016-09-14T09:03:42.362Z,32.72
2016-09-14T09:04:42.224Z,32.54
2016-09-14T09:05:42.185Z,32.65
2016-09-14T09:06:42.382Z,32.64
2016-09-14T09:07:42.207Z,32.49
2016-09-14T09:08:42.470Z,32.75
2016-09-14T09:09:42.555Z,32.84
2016-09-14T09:10:42.271Z,33.37
2016-09-14T09:11:42.205Z,33.16
2016-09-14T09:12:42.194Z,33.32
2016-09-14T09:13:42.343Z,33.08
2016-09-14T09:14:42.457Z,32.76
2016-09-14T09:15:42.249Z,32.68
2016-09-14T09:16:42.474Z,33.28
2016-09-14T09:17:42.185Z,33.46
2016-09-14T09:18:42.227Z,33.55
2016-09-14T09:19:42.368Z,33.83
2016-09-14T09:20:42.331Z,33.99
2016-09-14T09:21:42.347Z,34.32
2016-09-14T09:22:42.393Z,34.21
2016-09-14T09:23:42.270Z,33.34
2016-09-14T09:24:48.992Z,32.81
2016-09-14T09:25:42.746Z,32.25
2016-09-14T09:26:42.358Z,32.32
2016-09-14T09:27:42.465Z,32.86
2016-09-14T09:28:42.350Z,32.81
2016-09-14T09:29:42.419Z,32.53
2016-09-14T09:30:42.751Z,32.38
2016-09-14T09:31:43.236Z,32.12
2016-09-14T09:32:42.277Z,32.59
2016-09-14T09:33:42.400Z,33.09
2016-09-14T09:34:42.500Z,33.48
2016-09-14T09:35:42.342Z,34
2016-09-14T09:36:42.807Z,34.27
2016-09-14T09:37:42.248Z,33.53
2016-09-14T09:38:42.437Z,33.12
2016-09-14T09:39:42.473Z,32.61
2016-09-14T09:40:42.261Z,32.62
2016-09-14T09:41:42.467Z,33.08
2016-09-14T09:42:42.252Z,33.2
2016-09-14T09:43:42.308Z,33.29
2016-09-14T09:44:42.411Z,33.89
2016-09-14T09:45:44.146Z,33.34
2016-09-14T09:46:42.307Z,33.31
2016-09-14T09:47:42.400Z,32.86
2016-09-14T09:48:42.591Z,32.74
2016-09-14T09:49:42.683Z,33.32
2016-09-14T09:50:42.538Z,33.61
2016-09-14T09:51:45.292Z,33.93
2016-09-14T09:52:42.293Z,34.27
2016-09-14T09:53:42.872Z,33.95
2016-09-14T09:54:42.464Z,34.08
2016-09-14T09:55:42.382Z,34.33
2016-09-14T09:56:42.598Z,34.19
2016-09-14T09:57:42.970Z,34.22
2016-09-14T09:58:42.358Z,34.43
2016-09-14T09:59:42.335Z,34.9
2016-09-14T10:00:42.380Z,34.39
2016-09-14T10:01:42.419Z,33.83
2016-09-14T10:02:42.368Z,33.73
2016-09-14T10:03:42.295Z,33.9
2016-09-14T10:04:42.604Z,34.3
2016-09-14T10:05:42.430Z,34.79
2016-09-14T10:06:42.704Z,33.99
2016-09-14T10:07:42.717Z,34.43
2016-09-14T10:08:42.413Z,34.75
2016-09-14T10:09:42.410Z,35.04
2016-09-14T10:10:42.441Z,35.21
2016-09-14T10:11:42.429Z,35.46
2016-09-14T10:12:42.683Z,35.95
2016-09-14T10:13:42.446Z,36.49
2016-09-14T10:14:48.247Z,36.52
2016-09-14T10:15:42.482Z,36.25
2016-09-14T10:16:42.450Z,36.05
2016-09-14T10:17:42.537Z,34.96
2016-09-14T10:18:42.423Z,34.71
2016-09-14T10:19:42.543Z,35.02
2016-09-14T10:20:42.445Z,35.26
2016-09-14T10:21:42.830Z,35.01
2016-09-14T10:22:43.182Z,34.79
2016-09-14T10:23:42.696Z,33.93
2016-09-14T10:24:42.720Z,34.14
2016-09-14T10:25:42.554Z,34.75
2016-09-14T10:26:42.581Z,34.81
2016-09-14T10:27:42.393Z,34.9
2016-09-14T10:28:42.382Z,34.81
2016-09-14T10:29:42.660Z,35.01
2016-09-14T10:30:42.480Z,35.46
2016-09-14T10:31:42.435Z,35.8
2016-09-14T10:32:42.563Z,35.24
2016-09-14T10:33:42.430Z,35.12
2016-09-14T10:34:43.377Z,35.39
2016-09-14T10:35:42.547Z,35.86
2016-09-14T10:36:42.794Z,36.06
2016-09-14T10:37:43.495Z,35.58
2016-09-14T10:38:42.511Z,35.43
2016-09-14T10:39:42.522Z,35.62
2016-09-14T10:40:42.497Z,36.12
2016-09-14T10:41:42.627Z,36.65
2016-09-14T10:42:42.529Z,36.95
2016-09-14T10:43:42.418Z,37.24
2016-09-14T10:44:42.733Z,37.37
2016-09-14T10:45:50.885Z,37.33
2016-09-14T10:46:42.680Z,36.9
2016-09-14T10:47:42.552Z,36.52
2016-09-14T10:48:42.475Z,36.09
2016-09-14T10:49:42.638Z,36.62
2016-09-14T10:50:42.458Z,36.86
2016-09-14T10:51:42.642Z,36.84
2016-09-14T10:52:42.538Z,36.7
2016-09-14T10:53:42.500Z,36.43
2016-09-14T10:54:42.505Z,36.56
2016-09-14T10:55:42.548Z,34.75
2016-09-14T10:56:42.520Z,34.69
2016-09-14T10:57:42.535Z,35.4
2016-09-14T10:58:42.703Z,35.92
2016-09-14T10:59:42.581Z,35.05
2016-09-14T11:00:42.789Z,35.83
2016-09-14T11:01:42.534Z,36.44
2016-09-14T11:02:42.576Z,36.97
2016-09-14T11:07:08.319Z,36.21
2016-09-14T11:08:08.155Z,36.04
2016-09-14T11:09:08.305Z,35.98
2016-09-14T11:10:08.225Z,36.32
2016-09-14T11:11:08.323Z,36.58
2016-09-14T11:12:08.225Z,36.95
2016-09-14T11:13:08.998Z,37.31
2016-09-14T11:14:08.288Z,37.71
2016-09-14T11:15:08.472Z,37.65
2016-09-14T11:16:08.311Z,38.06
2016-09-14T11:17:08.315Z,38.15
2016-09-14T11:18:08.360Z,38.06
2016-09-14T11:19:08.339Z,37.96
2016-09-14T11:20:08.280Z,37.72
2016-09-14T11:21:08.305Z,36.37
2016-09-14T11:22:08.375Z,35.62
2016-09-14T11:23:08.282Z,35.62
2016-09-14T11:24:08.249Z,35.76
2016-09-14T11:25:08.260Z,36.25
2016-09-14T11:26:08.505Z,36.71
2016-09-14T11:27:08.370Z,36.73
2016-09-14T11:28:08.294Z,36.96
2016-09-14T11:29:08.372Z,37.46
2016-09-14T11:30:08.374Z,37.48
2016-09-14T11:31:08.431Z,37.39
2016-09-14T11:32:08.555Z,37.46
2016-09-14T11:33:08.561Z,37.41
2016-09-14T11:34:08.488Z,37.17
2016-09-14T11:35:08.351Z,36.49
2016-09-14T11:36:08.348Z,34.58
2016-09-14T11:37:08.410Z,34.54
2016-09-14T11:38:08.391Z,34.75
2016-09-14T11:39:08.378Z,34.48
2016-09-14T11:40:08.438Z,35.08
2016-09-14T11:41:08.350Z,35.42
2016-09-14T11:42:08.367Z,34.75
2016-09-14T11:43:08.362Z,34.71
2016-09-14T11:44:08.357Z,34.55
2016-09-14T11:45:08.287Z,34.37
2016-09-14T11:46:08.265Z,34.03
2016-09-14T11:47:08.339Z,33.87
2016-09-14T11:48:08.448Z,34.58
2016-09-14T11:49:08.559Z,35.31
2016-09-14T11:50:08.323Z,35.11
2016-09-14T11:51:08.370Z,35.06
2016-09-14T11:52:08.759Z,35.45
2016-09-14T11:53:08.347Z,36.47
2016-09-14T11:54:08.415Z,37.15
2016-09-14T11:55:08.496Z,37.18
2016-09-14T11:56:08.508Z,37.02
2016-09-14T11:57:08.428Z,36.33
2016-09-14T11:58:08.332Z,36.39
2016-09-14T11:59:08.378Z,36.55
2016-09-14T12:00:08.458Z,35.24
2016-09-14T12:01:08.333Z,35.6
2016-09-14T12:02:08.425Z,35.86
2016-09-14T12:03:08.478Z,35.98
2016-09-14T12:04:08.387Z,36.93
2016-09-14T12:05:08.433Z,37.86
2016-09-14T12:06:08.396Z,38.1
2016-09-14T12:07:08.400Z,38.43
2016-09-14T12:08:08.357Z,38.64
2016-09-14T12:09:08.385Z,38.71
2016-09-14T12:10:08.425Z,38.84
2016-09-14T12:11:08.503Z,38.76
2016-09-14T12:12:08.434Z,38.66
2016-09-14T12:13:08.413Z,38.5
2016-09-14T12:14:08.419Z,37.98
2016-09-14T12:15:08.426Z,37.68
2016-09-14T12:16:08.494Z,37.49
2016-09-14T12:17:08.400Z,37.88
2016-09-14T12:18:08.420Z,38.73
2016-09-14T12:19:08.454Z,38.78
2016-09-14T12:20:08.721Z,38.2
2016-09-14T12:21:08.467Z,37.24
2016-09-14T12:22:08.509Z,37.66
2016-09-14T12:23:08.477Z,36.75
2016-09-14T12:24:08.505Z,36.9
2016-09-14T12:25:08.429Z,36.96
2016-09-14T12:26:08.446Z,37.07
2016-09-14T12:27:08.556Z,37.09
2016-09-14T12:28:08.481Z,36.93
2016-09-14T12:29:08.458Z,36.93
2016-09-14T12:30:08.381Z,36.99
2016-09-14T12:31:08.523Z,36.56
2016-09-14T12:32:08.486Z,36.33
2016-09-14T12:33:08.445Z,36.34
2016-09-14T12:34:08.466Z,36.49
2016-09-14T12:35:08.781Z,36.53
2016-09-14T12:36:08.512Z,36.7
2016-09-14T12:37:08.522Z,37.08
2016-09-14T12:38:08.468Z,36.96
2016-09-14T12:39:08.563Z,37.42
2016-09-14T12:40:10.385Z,37.76
2016-09-14T12:41:08.578Z,38.61
2016-09-14T12:42:08.520Z,38.12
2016-09-14T12:43:08.626Z,37.08
2016-09-14T12:44:08.581Z,37.41
2016-09-14T12:45:08.550Z,38.05
2016-09-14T12:46:08.590Z,38.61
2016-09-14T12:47:08.557Z,39.31
2016-09-14T12:48:08.533Z,39.2
2016-09-14T12:49:08.611Z,38.81
2016-09-14T12:50:08.600Z,38.89
2016-09-14T12:51:08.618Z,38.85
2016-09-14T12:52:08.626Z,38.1
2016-09-14T12:53:08.585Z,37.46
2016-09-14T12:54:08.590Z,37.05
2016-09-14T12:55:08.660Z,36.73
2016-09-14T12:56:08.620Z,36.61
2016-09-14T12:57:08.574Z,37.22
2016-09-14T12:58:08.523Z,37.36
2016-09-14T12:59:08.598Z,37.54
2016-09-14T13:00:09.264Z,37.75